San Gennaro — IIOT2 — position and weather

sailwx.info

Track history (hours):
 
Tides and Currents Weather Stations Pressure Air Temp Water Temp Dewpoint Dewpoint Depression Visibility Wind Speed Wind Dir Waves Ship Positions

San Gennaro

Last reported at 2016-Jun-24 22:24 UTC. Time now 2016-Jun-24 23:59 UTC.
Position N 40°51' E 014°16'.

Length 27 m; draft 5.2 m.

Type: Tug. MMSI: 247295700.

Date/timePositionNaut miles runAvg speedWind from/ knotsBaromVisibWave heightAir tempDewpointWater temp
2016-Jun-24 22:24N 40°51' E 014°16'1 0.9
2016-Jun-24 21:33N 40°50' E 014°16'1 0.0
2016-Jun-24 09:21N 40°50' E 014°17'0 0.4
2016-Jun-24 08:33N 40°50' E 014°17'1 0.9
2016-Jun-24 07:33N 40°50' E 014°18'1 0.0
2016-Jun-22 20:20N 40°51' E 014°16'0 0.0
2016-Jun-21 20:19N 40°51' E 014°16'0 0.0
2016-Jun-21 10:29N 40°50' E 014°16'1 1.2
2016-Jun-21 09:33N 40°49' E 014°15'1 0.1
2016-Jun-20 20:10N 40°51' E 014°16'0 0.0
2016-Jun-20 19:33N 40°51' E 014°16'0 0.0
2016-Jun-20 18:31N 40°51' E 014°16'0 0.0
2016-Jun-20 12:25N 40°51' E 014°16'0 0.2
2016-Jun-20 10:30N 40°50' E 014°16'0 0.0
2016-Jun-19 19:21N 40°51' E 014°16'2 0.3
2016-Jun-19 14:23N 40°50' E 014°18'1 0.6
2016-Jun-19 13:24N 40°50' E 014°17'0 0.2
2016-Jun-19 12:21N 40°50' E 014°17'2 2.6
2016-Jun-19 11:30N 40°48' E 014°15'2 2.4
2016-Jun-19 10:33N 40°51' E 014°16'0 0.0
2016-Jun-19 09:33N 40°51' E 014°16'0 0.0
2016-Jun-19 08:32N 40°51' E 014°16'0 0.0
2016-Jun-19 07:33N 40°51' E 014°16'0 0.0
2016-Jun-19 06:34N 40°51' E 014°16'1 1.2
2016-Jun-19 05:34N 40°50' E 014°17'1 1.2
2016-Jun-19 04:33N 40°51' E 014°16'0 0.0
2016-Jun-19 03:33N 40°51' E 014°16'0 0.0
2016-Jun-19 02:34N 40°51' E 014°16'0 0.0
2016-Jun-19 01:34N 40°51' E 014°16'0 0.0
2016-Jun-19 00:33N 40°51' E 014°16'0 0.0
2016-Jun-18 23:33N 40°51' E 014°16'0 0.0
2016-Jun-18 22:34N 40°51' E 014°16'1 1.0
2016-Jun-18 21:33N 40°50' E 014°17'1 1.0
2016-Jun-18 20:33N 40°49' E 014°17'0 0.3
2016-Jun-18 19:33N 40°49' E 014°16'1 1.2
2016-Jun-18 18:34N 40°51' E 014°16'0 0.0
2016-Jun-18 17:34N 40°51' E 014°16'0 0.0
2016-Jun-18 16:34N 40°51' E 014°16'0 0.0
2016-Jun-18 15:34N 40°51' E 014°16'0 0.0
2016-Jun-18 14:34N 40°51' E 014°16'0 0.0
2016-Jun-18 13:34N 40°51' E 014°16'1 1.4
2016-Jun-18 12:34N 40°50' E 014°18'1 1.4
2016-Jun-18 11:34N 40°51' E 014°16'0 0.0
2016-Jun-18 10:34N 40°51' E 014°16'0 0.0
2016-Jun-18 09:34N 40°51' E 014°16'0 0.0
2016-Jun-18 08:34N 40°51' E 014°16'0 0.0
2016-Jun-18 07:33N 40°51' E 014°16'0 0.0
2016-Jun-18 06:34N 40°51' E 014°16'0 0.0
2016-Jun-18 05:34N 40°51' E 014°16'0 0.0
2016-Jun-18 04:33N 40°51' E 014°16'0 0.0
2016-Jun-18 03:34N 40°51' E 014°16'0 0.0
2016-Jun-18 02:34N 40°51' E 014°16'0 0.0
2016-Jun-18 01:33N 40°51' E 014°16'0 0.0
2016-Jun-18 00:33N 40°51' E 014°16'0 0.0
2016-Jun-17 23:34N 40°51' E 014°16'0 0.0
2016-Jun-17 22:33N 40°51' E 014°16'0 0.0
2016-Jun-17 21:33N 40°51' E 014°16'0 0.4
2016-Jun-17 20:32N 40°50' E 014°16'1 1.1
2016-Jun-17 19:33N 40°50' E 014°17'1 0.6
2016-Jun-17 18:34N 40°50' E 014°16'0 0.1
2016-Jun-17 17:33N 40°50' E 014°16'1 0.6
2016-Jun-17 16:34N 40°51' E 014°16'0 0.0
2016-Jun-17 15:34N 40°51' E 014°16'0 0.0
2016-Jun-17 14:33N 40°51' E 014°16'0 0.0
2016-Jun-17 13:33N 40°51' E 014°16'0 0.0
2016-Jun-17 12:33N 40°51' E 014°16'2 0.9
2016-Jun-17 10:33N 40°49' E 014°17'1 0.9
2016-Jun-17 09:34N 40°48' E 014°16'4 3.9
2016-Jun-17 08:33N 40°47' E 014°20'6 5.6
2016-Jun-17 07:34N 40°44' E 014°27'1010.0
2016-Jun-17 06:34N 40°50' E 014°16'1 0.5
2016-Jun-17 05:34N 40°50' E 014°17'0 0.3
2016-Jun-17 04:32N 40°50' E 014°17'1 1.1
2016-Jun-17 03:34N 40°51' E 014°16'0 0.0
2016-Jun-17 02:34N 40°51' E 014°16'0 0.0
2016-Jun-17 01:34N 40°51' E 014°16'0 0.0
2016-Jun-17 00:33N 40°51' E 014°16'0 0.0
2016-Jun-16 23:34N 40°51' E 014°16'0 0.0
2016-Jun-16 22:33N 40°51' E 014°16'0 0.0
2016-Jun-16 21:33N 40°51' E 014°16'0 0.0
2016-Jun-16 20:33N 40°51' E 014°16'2 1.8
2016-Jun-16 19:33N 40°50' E 014°18'1 1.2
2016-Jun-16 18:34N 40°50' E 014°17'1 0.6
2016-Jun-16 17:33N 40°51' E 014°16'0 0.0
2016-Jun-16 16:34N 40°51' E 014°16'0 0.0
2016-Jun-16 15:34N 40°51' E 014°16'1 1.5
2016-Jun-16 14:33N 40°50' E 014°18'1 1.5
2016-Jun-16 13:33N 40°51' E 014°16'0 0.0
2016-Jun-16 12:33N 40°51' E 014°16'0 0.0
2016-Jun-16 11:33N 40°51' E 014°16'0 0.0
2016-Jun-16 10:33N 40°51' E 014°16'0 0.0
2016-Jun-16 09:34N 40°51' E 014°16'0 0.0
2016-Jun-16 08:33N 40°51' E 014°16'0 0.0
2016-Jun-16 07:32N 40°51' E 014°16'0 0.0
2016-Jun-16 06:33N 40°51' E 014°16'0 0.0
2016-Jun-16 05:33N 40°51' E 014°16'0 0.0
2016-Jun-16 04:33N 40°51' E 014°16'0 0.0
2016-Jun-16 03:34N 40°51' E 014°16'0 0.0
2016-Jun-16 02:33N 40°51' E 014°16'0 0.0
2016-Jun-16 01:33N 40°51' E 014°16'0 0.0
2016-Jun-16 00:33N 40°51' E 014°16'0 0.0
2016-Jun-15 23:33N 40°51' E 014°16'0 0.0
2016-Jun-15 22:33N 40°51' E 014°16'0 0.0
2016-Jun-15 21:34N 40°51' E 014°16'0 0.0
2016-Jun-15 20:34N 40°51' E 014°16'0 0.0
2016-Jun-15 19:33N 40°51' E 014°16'0 0.0
2016-Jun-15 18:33N 40°51' E 014°16'0 0.0
2016-Jun-15 17:34N 40°51' E 014°16'0 0.0
2016-Jun-15 16:33N 40°51' E 014°16'0 0.0
2016-Jun-15 15:34N 40°51' E 014°16'1 0.9
2016-Jun-15 14:25N 40°50' E 014°17'1 1.2
2016-Jun-15 13:33N 40°51' E 014°16'0 0.0
2016-Jun-15 12:33N 40°51' E 014°16'0 0.0
2016-Jun-15 11:33N 40°51' E 014°16'0 0.0
2016-Jun-15 10:33N 40°51' E 014°16'0 0.1
2016-Jun-15 09:32N 40°51' E 014°16'0 0.1
2016-Jun-15 08:33N 40°51' E 014°16'0 0.0
2016-Jun-15 07:34N 40°51' E 014°16'0 0.0
2016-Jun-15 06:33N 40°51' E 014°16'0 0.0
2016-Jun-15 05:32N 40°51' E 014°16'0 0.0
2016-Jun-15 04:33N 40°51' E 014°16'1 1.0
2016-Jun-15 03:32N 40°50' E 014°17'1 1.1
2016-Jun-15 02:33N 40°51' E 014°16'0 0.0
2016-Jun-15 01:34N 40°51' E 014°16'0 0.0
2016-Jun-15 00:34N 40°51' E 014°16'0 0.0
2016-Jun-14 23:34N 40°51' E 014°16'0 0.0
2016-Jun-14 22:34N 40°51' E 014°16'  
Track history (hours):
 
Tides and Currents Weather Stations Pressure Air Temp Water Temp Dewpoint Dewpoint Depression Visibility Wind Speed Wind Dir Waves Ship Positions

San Gennaro

Last reported at 2016-Jun-24 22:24 UTC. Time now 2016-Jun-24 23:59 UTC.
Position N 40°51' E 014°16'.

Length 27 m; draft 5.2 m.

Type: Tug. MMSI: 247295700.

Date/timePositionNaut miles runAvg speedWind from/ knotsBaromVisibWave heightAir tempDewpointWater temp
2016-Jun-24 22:24N 40°51' E 014°16'1 0.9
2016-Jun-24 21:33N 40°50' E 014°16'1 0.0
2016-Jun-24 09:21N 40°50' E 014°17'0 0.4
2016-Jun-24 08:33N 40°50' E 014°17'1 0.9
2016-Jun-24 07:33N 40°50' E 014°18'1 0.0
2016-Jun-22 20:20N 40°51' E 014°16'0 0.0
2016-Jun-21 20:19N 40°51' E 014°16'0 0.0
2016-Jun-21 10:29N 40°50' E 014°16'1 1.2
2016-Jun-21 09:33N 40°49' E 014°15'1 0.1
2016-Jun-20 20:10N 40°51' E 014°16'0 0.0
2016-Jun-20 19:33N 40°51' E 014°16'0 0.0
2016-Jun-20 18:31N 40°51' E 014°16'0 0.0
2016-Jun-20 12:25N 40°51' E 014°16'0 0.2
2016-Jun-20 10:30N 40°50' E 014°16'0 0.0
2016-Jun-19 19:21N 40°51' E 014°16'2 0.3
2016-Jun-19 14:23N 40°50' E 014°18'1 0.6
2016-Jun-19 13:24N 40°50' E 014°17'0 0.2
2016-Jun-19 12:21N 40°50' E 014°17'2 2.6
2016-Jun-19 11:30N 40°48' E 014°15'2 2.4
2016-Jun-19 10:33N 40°51' E 014°16'0 0.0
2016-Jun-19 09:33N 40°51' E 014°16'0 0.0
2016-Jun-19 08:32N 40°51' E 014°16'0 0.0
2016-Jun-19 07:33N 40°51' E 014°16'0 0.0
2016-Jun-19 06:34N 40°51' E 014°16'1 1.2
2016-Jun-19 05:34N 40°50' E 014°17'1 1.2
2016-Jun-19 04:33N 40°51' E 014°16'0 0.0
2016-Jun-19 03:33N 40°51' E 014°16'0 0.0
2016-Jun-19 02:34N 40°51' E 014°16'0 0.0
2016-Jun-19 01:34N 40°51' E 014°16'0 0.0
2016-Jun-19 00:33N 40°51' E 014°16'0 0.0
2016-Jun-18 23:33N 40°51' E 014°16'0 0.0
2016-Jun-18 22:34N 40°51' E 014°16'1 1.0
2016-Jun-18 21:33N 40°50' E 014°17'1 1.0
2016-Jun-18 20:33N 40°49' E 014°17'0 0.3
2016-Jun-18 19:33N 40°49' E 014°16'1 1.2
2016-Jun-18 18:34N 40°51' E 014°16'0 0.0
2016-Jun-18 17:34N 40°51' E 014°16'0 0.0
2016-Jun-18 16:34N 40°51' E 014°16'0 0.0
2016-Jun-18 15:34N 40°51' E 014°16'0 0.0
2016-Jun-18 14:34N 40°51' E 014°16'0 0.0
2016-Jun-18 13:34N 40°51' E 014°16'1 1.4
2016-Jun-18 12:34N 40°50' E 014°18'1 1.4
2016-Jun-18 11:34N 40°51' E 014°16'0 0.0
2016-Jun-18 10:34N 40°51' E 014°16'0 0.0
2016-Jun-18 09:34N 40°51' E 014°16'0 0.0
2016-Jun-18 08:34N 40°51' E 014°16'0 0.0
2016-Jun-18 07:33N 40°51' E 014°16'0 0.0
2016-Jun-18 06:34N 40°51' E 014°16'0 0.0
2016-Jun-18 05:34N 40°51' E 014°16'0 0.0
2016-Jun-18 04:33N 40°51' E 014°16'0 0.0
2016-Jun-18 03:34N 40°51' E 014°16'0 0.0
2016-Jun-18 02:34N 40°51' E 014°16'0 0.0
2016-Jun-18 01:33N 40°51' E 014°16'0 0.0
2016-Jun-18 00:33N 40°51' E 014°16'0 0.0
2016-Jun-17 23:34N 40°51' E 014°16'0 0.0
2016-Jun-17 22:33N 40°51' E 014°16'0 0.0
2016-Jun-17 21:33N 40°51' E 014°16'0 0.4
2016-Jun-17 20:32N 40°50' E 014°16'1 1.1
2016-Jun-17 19:33N 40°50' E 014°17'1 0.6
2016-Jun-17 18:34N 40°50' E 014°16'0 0.1
2016-Jun-17 17:33N 40°50' E 014°16'1 0.6
2016-Jun-17 16:34N 40°51' E 014°16'0 0.0
2016-Jun-17 15:34N 40°51' E 014°16'0 0.0
2016-Jun-17 14:33N 40°51' E 014°16'0 0.0
2016-Jun-17 13:33N 40°51' E 014°16'0 0.0
2016-Jun-17 12:33N 40°51' E 014°16'2 0.9
2016-Jun-17 10:33N 40°49' E 014°17'1 0.9
2016-Jun-17 09:34N 40°48' E 014°16'4 3.9
2016-Jun-17 08:33N 40°47' E 014°20'6 5.6
2016-Jun-17 07:34N 40°44' E 014°27'1010.0
2016-Jun-17 06:34N 40°50' E 014°16'1 0.5
2016-Jun-17 05:34N 40°50' E 014°17'0 0.3
2016-Jun-17 04:32N 40°50' E 014°17'1 1.1
2016-Jun-17 03:34N 40°51' E 014°16'0 0.0
2016-Jun-17 02:34N 40°51' E 014°16'0 0.0
2016-Jun-17 01:34N 40°51' E 014°16'0 0.0
2016-Jun-17 00:33N 40°51' E 014°16'0 0.0
2016-Jun-16 23:34N 40°51' E 014°16'0 0.0
2016-Jun-16 22:33N 40°51' E 014°16'0 0.0
2016-Jun-16 21:33N 40°51' E 014°16'0 0.0
2016-Jun-16 20:33N 40°51' E 014°16'2 1.8
2016-Jun-16 19:33N 40°50' E 014°18'1 1.2
2016-Jun-16 18:34N 40°50' E 014°17'1 0.6
2016-Jun-16 17:33N 40°51' E 014°16'0 0.0
2016-Jun-16 16:34N 40°51' E 014°16'0 0.0
2016-Jun-16 15:34N 40°51' E 014°16'1 1.5
2016-Jun-16 14:33N 40°50' E 014°18'1 1.5
2016-Jun-16 13:33N 40°51' E 014°16'0 0.0
2016-Jun-16 12:33N 40°51' E 014°16'0 0.0
2016-Jun-16 11:33N 40°51' E 014°16'0 0.0
2016-Jun-16 10:33N 40°51' E 014°16'0 0.0
2016-Jun-16 09:34N 40°51' E 014°16'0 0.0
2016-Jun-16 08:33N 40°51' E 014°16'0 0.0
2016-Jun-16 07:32N 40°51' E 014°16'0 0.0
2016-Jun-16 06:33N 40°51' E 014°16'0 0.0
2016-Jun-16 05:33N 40°51' E 014°16'0 0.0
2016-Jun-16 04:33N 40°51' E 014°16'0 0.0
2016-Jun-16 03:34N 40°51' E 014°16'0 0.0
2016-Jun-16 02:33N 40°51' E 014°16'0 0.0
2016-Jun-16 01:33N 40°51' E 014°16'0 0.0
2016-Jun-16 00:33N 40°51' E 014°16'0 0.0
2016-Jun-15 23:33N 40°51' E 014°16'0 0.0
2016-Jun-15 22:33N 40°51' E 014°16'0 0.0
2016-Jun-15 21:34N 40°51' E 014°16'0 0.0
2016-Jun-15 20:34N 40°51' E 014°16'0 0.0
2016-Jun-15 19:33N 40°51' E 014°16'0 0.0
2016-Jun-15 18:33N 40°51' E 014°16'0 0.0
2016-Jun-15 17:34N 40°51' E 014°16'0 0.0
2016-Jun-15 16:33N 40°51' E 014°16'0 0.0
2016-Jun-15 15:34N 40°51' E 014°16'1 0.9
2016-Jun-15 14:25N 40°50' E 014°17'1 1.2
2016-Jun-15 13:33N 40°51' E 014°16'0 0.0
2016-Jun-15 12:33N 40°51' E 014°16'0 0.0
2016-Jun-15 11:33N 40°51' E 014°16'0 0.0
2016-Jun-15 10:33N 40°51' E 014°16'0 0.1
2016-Jun-15 09:32N 40°51' E 014°16'0 0.1
2016-Jun-15 08:33N 40°51' E 014°16'0 0.0
2016-Jun-15 07:34N 40°51' E 014°16'0 0.0
2016-Jun-15 06:33N 40°51' E 014°16'0 0.0
2016-Jun-15 05:32N 40°51' E 014°16'0 0.0
2016-Jun-15 04:33N 40°51' E 014°16'1 1.0
2016-Jun-15 03:32N 40°50' E 014°17'1 1.1
2016-Jun-15 02:33N 40°51' E 014°16'0 0.0
2016-Jun-15 01:34N 40°51' E 014°16'0 0.0
2016-Jun-15 00:34N 40°51' E 014°16'0 0.0
2016-Jun-14 23:34N 40°51' E 014°16'0 0.0
2016-Jun-14 22:34N 40°51' E 014°16'  

Dump ship's entire track history